createdAt,value
2023-05-10T00:00:52.783Z,100765.84
2023-05-10T00:02:25.854Z,100773.72
2023-05-10T00:03:58.023Z,100767.59
2023-05-10T00:05:30.083Z,100776.38
2023-05-10T00:07:01.992Z,100767.75
2023-05-10T00:08:33.945Z,100766.84
2023-05-10T00:10:06.308Z,100771.16
2023-05-10T00:11:38.255Z,100773.72
2023-05-10T00:13:10.375Z,100771.09
2023-05-10T00:14:42.335Z,100776.34
2023-05-10T00:16:14.682Z,100774.78
2023-05-10T00:17:46.655Z,100773.19
2023-05-10T00:19:18.669Z,100775.91
2023-05-10T00:20:50.792Z,100778.53
2023-05-10T00:22:22.789Z,100772.44
2023-05-10T00:23:54.672Z,100770.66
2023-05-10T00:25:26.643Z,100770.53
2023-05-10T00:26:58.519Z,100774.97
2023-05-10T00:28:30.677Z,100776.75
2023-05-10T00:30:02.603Z,100780.22
2023-05-10T00:31:34.921Z,100771.56
2023-05-10T00:33:07.104Z,100775.16
2023-05-10T00:34:39.238Z,100765.50
2023-05-10T00:36:11.603Z,100775.03
2023-05-10T00:37:43.665Z,100775.91
2023-05-10T00:39:15.852Z,100768.03
2023-05-10T00:40:47.767Z,100770.63
2023-05-10T00:42:27.218Z,100769.00
2023-05-10T00:44:00.391Z,100771.69
2023-05-10T00:45:36.880Z,100764.78
2023-05-10T00:47:09.260Z,100777.91
2023-05-10T00:48:41.394Z,100773.44
2023-05-10T00:50:13.499Z,100768.28
2023-05-10T00:51:46.106Z,100770.81
2023-05-10T00:53:18.280Z,100767.47
2023-05-10T00:54:51.667Z,100775.31
2023-05-10T00:56:24.490Z,100778.75
2023-05-10T00:57:57.116Z,100762.09
2023-05-10T00:59:30.028Z,100766.44
2023-05-10T01:01:01.969Z,100769.09
2023-05-10T01:02:38.191Z,100778.75
2023-05-10T01:04:11.405Z,100763.13
2023-05-10T01:05:43.396Z,100772.72
2023-05-10T01:07:15.394Z,100765.59
2023-05-10T01:08:47.397Z,100768.16
2023-05-10T01:10:20.926Z,100775.16
2023-05-10T01:11:53.251Z,100776.00
2023-05-10T01:13:31.299Z,100773.34
2023-05-10T01:15:03.642Z,100768.09
2023-05-10T01:16:40.603Z,100769.00
2023-05-10T01:18:12.534Z,100769.00
2023-05-10T01:19:45.613Z,100761.19
2023-05-10T01:21:33.633Z,100763.72
2023-05-10T01:23:42.944Z,100761.06
2023-05-10T01:25:34.742Z,100770.75
2023-05-10T01:27:24.799Z,100768.94
2023-05-10T01:29:22.162Z,100756.69
2023-05-10T01:31:10.952Z,100764.53
2023-05-10T01:33:16.649Z,100762.75
2023-05-10T01:35:20.752Z,100767.97
2023-05-10T01:36:56.823Z,100765.34
2023-05-10T01:38:45.552Z,100765.31
2023-05-10T01:40:20.068Z,100759.16
2023-05-10T01:42:05.479Z,100767.91
2023-05-10T01:43:44.606Z,100763.59
2023-05-10T01:45:30.135Z,100769.66
2023-05-10T01:47:13.026Z,100767.91
2023-05-10T01:48:50.192Z,100775.72
2023-05-10T01:50:26.193Z,100770.50
2023-05-10T01:52:05.194Z,100779.41
2023-05-10T01:53:39.043Z,100768.09
2023-05-10T01:55:15.318Z,100769.00
2023-05-10T01:56:50.831Z,100774.41
2023-05-10T01:58:26.793Z,100772.59
2023-05-10T02:00:00.541Z,100771.69
2023-05-10T02:01:33.215Z,100770.88
2023-05-10T02:03:08.013Z,100776.13
2023-05-10T02:04:41.021Z,100771.72
2023-05-10T02:06:14.182Z,100772.69
2023-05-10T02:07:46.779Z,100774.38
2023-05-10T02:09:19.178Z,100768.25
2023-05-10T02:10:56.224Z,100779.66
2023-05-10T02:12:28.519Z,100769.25
2023-05-10T02:14:01.656Z,100775.38
2023-05-10T02:15:34.083Z,100769.34
2023-05-10T02:17:07.485Z,100777.22
2023-05-10T02:18:42.761Z,100780.72
2023-05-10T02:20:15.901Z,100775.53
2023-05-10T02:21:48.619Z,100783.38
2023-05-10T02:23:21.627Z,100779.88
2023-05-10T02:24:57.490Z,100776.41
2023-05-10T02:26:30.482Z,100771.22
2023-05-10T02:28:05.196Z,100787.78
2023-05-10T02:29:37.903Z,100781.59
2023-05-10T02:31:11.783Z,100777.25
2023-05-10T02:32:44.521Z,100779.78
2023-05-10T02:34:16.446Z,100783.22
2023-05-10T02:35:48.481Z,100782.28
2023-05-10T02:37:21.887Z,100779.59
2023-05-10T02:38:54.618Z,100777.88
2023-05-10T02:40:29.115Z,100786.63
2023-05-10T02:42:01.949Z,100777.84
2023-05-10T02:43:35.165Z,100793.69
2023-05-10T02:45:12.441Z,100791.13
2023-05-10T02:46:44.602Z,100788.41
2023-05-10T02:48:16.953Z,100785.75
2023-05-10T02:49:49.108Z,100786.75
2023-05-10T02:51:22.246Z,100788.44
2023-05-10T02:52:57.676Z,100790.25
2023-05-10T02:54:32.904Z,100794.66
2023-05-10T02:56:14.935Z,100788.47
2023-05-10T02:57:51.097Z,100799.84
2023-05-10T02:59:23.179Z,100798.09
2023-05-10T03:00:55.140Z,100795.41
2023-05-10T03:02:27.739Z,100798.94
2023-05-10T03:03:59.661Z,100787.59
2023-05-10T03:05:31.704Z,100790.19
2023-05-10T03:07:06.723Z,100792.81
2023-05-10T03:08:38.839Z,100797.94
2023-05-10T03:10:12.081Z,100793.63
2023-05-10T03:11:58.334Z,100794.56
2023-05-10T03:13:50.428Z,100796.34
2023-05-10T03:15:48.676Z,100799.84
2023-05-10T03:17:49.347Z,100798.97
2023-05-10T03:19:29.127Z,100798.03
2023-05-10T03:21:06.551Z,100797.16
2023-05-10T03:22:42.922Z,100801.50
2023-05-10T03:24:16.791Z,100800.59
2023-05-10T03:25:51.958Z,100798.75
2023-05-10T03:27:24.076Z,100804.88
2023-05-10T03:28:56.939Z,100797.91
2023-05-10T03:30:30.826Z,100807.63
2023-05-10T03:32:02.922Z,100815.50
2023-05-10T03:33:36.818Z,100805.06
2023-05-10T03:35:13.614Z,100823.41
2023-05-10T03:36:45.615Z,100810.28
2023-05-10T03:38:17.603Z,100820.75
2023-05-10T03:39:49.540Z,100816.50
2023-05-10T03:41:21.964Z,100819.09
2023-05-10T03:42:53.856Z,100817.25
2023-05-10T03:44:25.786Z,100816.41
2023-05-10T03:45:57.780Z,100817.28
2023-05-10T03:47:30.903Z,100812.91
2023-05-10T03:49:06.227Z,100819.06
2023-05-10T03:50:38.222Z,100814.69
2023-05-10T03:52:10.207Z,100816.50
2023-05-10T03:53:42.247Z,100819.97
2023-05-10T03:55:14.252Z,100817.47
2023-05-10T03:56:47.800Z,100832.44
2023-05-10T03:58:21.333Z,100825.56
2023-05-10T03:59:53.312Z,100831.72
2023-05-10T04:01:25.197Z,100829.16
2023-05-10T04:02:57.387Z,100829.09
2023-05-10T04:04:29.405Z,100829.06
2023-05-10T04:06:04.520Z,100828.97
2023-05-10T04:07:36.549Z,100823.78
2023-05-10T04:09:09.637Z,100826.41
2023-05-10T04:10:41.577Z,100829.06
2023-05-10T04:12:13.603Z,100823.81
2023-05-10T04:13:45.570Z,100825.56
2023-05-10T04:15:17.558Z,100829.97
2023-05-10T04:16:49.527Z,100836.13
2023-05-10T04:18:21.466Z,100831.75
2023-05-10T04:19:55.871Z,100831.75
2023-05-10T04:21:27.930Z,100832.66
2023-05-10T04:22:59.860Z,100827.44
2023-05-10T04:24:31.732Z,100835.16
2023-05-10T04:26:03.738Z,100829.97
2023-05-10T04:27:35.677Z,100829.97
2023-05-10T04:29:07.874Z,100832.63
2023-05-10T04:30:40.018Z,100836.25
2023-05-10T04:32:11.911Z,100833.66
2023-05-10T04:33:43.921Z,100837.97
2023-05-10T04:35:16.123Z,100837.03
2023-05-10T04:36:48.185Z,100837.97
2023-05-10T04:38:20.121Z,100842.19
2023-05-10T04:39:52.088Z,100837.84
2023-05-10T04:41:24.064Z,100836.13
2023-05-10T04:42:55.949Z,100836.94
2023-05-10T04:44:27.933Z,100832.59
2023-05-10T04:46:00.145Z,100841.22
2023-05-10T04:47:32.261Z,100839.47
2023-05-10T04:49:04.255Z,100845.63
2023-05-10T04:50:36.155Z,100843.06
2023-05-10T04:52:08.093Z,100835.25
2023-05-10T04:53:40.038Z,100840.41
2023-05-10T04:55:11.956Z,100844.78
2023-05-10T04:56:44.000Z,100840.44
2023-05-10T04:58:16.138Z,100847.47
2023-05-10T04:59:50.267Z,100842.19
2023-05-10T05:01:22.603Z,100842.22
2023-05-10T05:02:54.628Z,100839.59
2023-05-10T05:04:26.884Z,100844.72
2023-05-10T05:05:58.790Z,100846.47
2023-05-10T05:07:31.856Z,100844.66
2023-05-10T05:09:03.897Z,100849.91
2023-05-10T05:10:36.160Z,100849.00
2023-05-10T05:12:08.087Z,100852.63
2023-05-10T05:13:40.184Z,100853.50
2023-05-10T05:15:12.317Z,100849.13
2023-05-10T05:16:44.218Z,100849.13
2023-05-10T05:18:16.142Z,100856.06
2023-05-10T05:19:48.046Z,100854.41
2023-05-10T05:21:20.914Z,100857.88
2023-05-10T05:22:52.721Z,100857.97
2023-05-10T05:24:24.637Z,100860.66
2023-05-10T05:25:56.504Z,100855.31
2023-05-10T05:27:29.111Z,100857.94
2023-05-10T05:29:00.990Z,100862.28
2023-05-10T05:30:32.895Z,100872.78
2023-05-10T05:32:05.024Z,100864.91
2023-05-10T05:33:37.088Z,100860.63
2023-05-10T05:35:09.318Z,100866.63
2023-05-10T05:36:41.276Z,100870.16
2023-05-10T05:38:13.223Z,100873.53
2023-05-10T05:39:45.569Z,100871.00
2023-05-10T05:41:17.491Z,100865.00
2023-05-10T05:42:49.307Z,100872.78
2023-05-10T05:44:21.210Z,100873.66
2023-05-10T05:45:56.572Z,100880.53
2023-05-10T05:47:28.490Z,100874.38
2023-05-10T05:49:00.350Z,100879.59
2023-05-10T05:50:32.672Z,100881.38
2023-05-10T05:52:05.330Z,100883.91
2023-05-10T05:53:37.316Z,100880.44
2023-05-10T05:55:09.490Z,100887.50
2023-05-10T05:56:41.482Z,100890.16
2023-05-10T05:58:13.494Z,100885.88
2023-05-10T05:59:45.752Z,100891.91
2023-05-10T06:01:17.909Z,100891.91
2023-05-10T06:02:50.069Z,100891.91
2023-05-10T06:04:22.283Z,100897.16
2023-05-10T06:05:54.250Z,100897.09
2023-05-10T06:07:26.657Z,100902.28
2023-05-10T06:08:58.707Z,100899.66
2023-05-10T06:10:31.796Z,100899.63
2023-05-10T06:12:03.844Z,100895.28
2023-05-10T06:13:36.433Z,100905.81
2023-05-10T06:15:09.281Z,100904.06
2023-05-10T06:16:41.804Z,100911.09
2023-05-10T06:18:13.835Z,100912.94
2023-05-10T06:19:45.973Z,100912.03
2023-05-10T06:21:18.040Z,100914.66
2023-05-10T06:22:49.984Z,100914.72
2023-05-10T06:24:22.463Z,100913.91
2023-05-10T06:25:54.427Z,100918.28
2023-05-10T06:27:26.347Z,100915.72
2023-05-10T06:28:58.320Z,100918.31
2023-05-10T06:30:30.617Z,100923.47
2023-05-10T06:32:02.649Z,100915.59
2023-05-10T06:33:35.305Z,100919.91
2023-05-10T06:35:07.893Z,100925.19
2023-05-10T06:36:40.056Z,100912.91
2023-05-10T06:38:12.109Z,100930.31
2023-05-10T06:39:44.014Z,100930.50
2023-05-10T06:41:16.077Z,100921.69
2023-05-10T06:42:49.191Z,100920.81
2023-05-10T06:44:21.210Z,100917.22
2023-05-10T06:45:53.360Z,100922.50
2023-05-10T06:47:25.485Z,100930.38
2023-05-10T06:48:57.446Z,100921.63
2023-05-10T06:50:29.649Z,100921.63
2023-05-10T06:52:01.575Z,100927.63
2023-05-10T06:53:33.972Z,100928.56
2023-05-10T06:55:06.537Z,100925.94
2023-05-10T06:56:41.453Z,100932.09
2023-05-10T06:58:13.935Z,100937.41
2023-05-10T06:59:45.881Z,100940.94
2023-05-10T07:01:17.927Z,100941.84
2023-05-10T07:02:50.212Z,100945.31
2023-05-10T07:04:22.202Z,100943.50
2023-05-10T07:05:54.277Z,100953.00
2023-05-10T07:07:26.246Z,100944.19
2023-05-10T07:08:58.414Z,100945.03
2023-05-10T07:10:31.132Z,100946.78
2023-05-10T07:12:03.196Z,100945.00
2023-05-10T07:13:35.870Z,100944.13
2023-05-10T07:15:08.718Z,100953.66
2023-05-10T07:16:40.676Z,100950.09
2023-05-10T07:18:12.749Z,100948.22
2023-05-10T07:19:44.937Z,100949.94
2023-05-10T07:21:16.897Z,100948.22
2023-05-10T07:22:48.843Z,100946.41
2023-05-10T07:24:20.860Z,100951.50
2023-05-10T07:25:53.497Z,100949.63
2023-05-10T07:27:25.445Z,100948.78
2023-05-10T07:28:57.413Z,100954.78
2023-05-10T07:30:29.421Z,100952.84
2023-05-10T07:32:01.604Z,100961.75
2023-05-10T07:33:33.585Z,100943.25
2023-05-10T07:35:05.998Z,100956.31
2023-05-10T07:36:38.051Z,100951.25
2023-05-10T07:38:10.069Z,100953.94
2023-05-10T07:39:42.094Z,100952.19
2023-05-10T07:41:14.008Z,100957.41
2023-05-10T07:42:45.970Z,100960.84
2023-05-10T07:44:20.364Z,100960.88
2023-05-10T07:45:54.704Z,100964.50
2023-05-10T07:47:28.376Z,100961.84
2023-05-10T07:49:00.442Z,100968.91
2023-05-10T07:50:32.488Z,100964.41
2023-05-10T07:52:05.099Z,100965.31
2023-05-10T07:53:37.121Z,100969.66
2023-05-10T07:55:09.745Z,100963.47
2023-05-10T07:56:45.982Z,100960.94
2023-05-10T07:58:17.960Z,100973.19
2023-05-10T07:59:50.053Z,100967.06
2023-05-10T08:01:22.383Z,100970.66
2023-05-10T08:02:54.491Z,100962.72
2023-05-10T08:04:26.644Z,100968.03
2023-05-10T08:05:58.640Z,100979.59
2023-05-10T08:07:30.592Z,100972.50
2023-05-10T08:09:02.550Z,100977.78
2023-05-10T08:10:34.487Z,100980.50
2023-05-10T08:12:06.828Z,100975.16
2023-05-10T08:13:38.857Z,100982.28
2023-05-10T08:15:11.391Z,100989.28
2023-05-10T08:16:43.657Z,100984.03
2023-05-10T08:18:15.633Z,100993.66
2023-05-10T08:19:47.661Z,100992.84
2023-05-10T08:21:19.894Z,100998.06
2023-05-10T08:22:52.027Z,100997.34
2023-05-10T08:24:24.119Z,101009.59
2023-05-10T08:25:56.129Z,101001.69
2023-05-10T08:27:28.073Z,101008.63
2023-05-10T08:29:00.140Z,101005.88
2023-05-10T08:30:32.146Z,101006.66
2023-05-10T08:32:04.280Z,101003.94
2023-05-10T08:33:37.694Z,101005.75
2023-05-10T08:35:09.901Z,101004.09
2023-05-10T08:36:51.185Z,101009.31
2023-05-10T08:38:23.280Z,101009.34
2023-05-10T08:39:55.333Z,101010.97
2023-05-10T08:41:27.590Z,101012.72
2023-05-10T08:43:13.847Z,101010.88
2023-05-10T08:44:48.870Z,101010.97
2023-05-10T08:46:23.050Z,101016.91
2023-05-10T08:47:55.499Z,101015.97
2023-05-10T08:49:28.963Z,101018.59
2023-05-10T08:51:02.086Z,101021.06
2023-05-10T08:52:34.408Z,101018.41
2023-05-10T08:54:07.131Z,101017.53
2023-05-10T08:55:40.085Z,101021.97
2023-05-10T08:57:12.292Z,101020.09
2023-05-10T08:58:44.359Z,101016.59
2023-05-10T09:00:16.925Z,101018.25
2023-05-10T09:01:50.624Z,101020.81
2023-05-10T09:03:22.882Z,101027.66
2023-05-10T09:04:55.083Z,101026.75
2023-05-10T09:06:27.210Z,101025.19
2023-05-10T09:08:01.659Z,101027.75
2023-05-10T09:09:33.816Z,101024.19
2023-05-10T09:11:06.208Z,101027.72
2023-05-10T09:12:38.525Z,101033.09
2023-05-10T09:14:10.828Z,101033.31
2023-05-10T09:15:42.969Z,101031.63
2023-05-10T09:17:15.193Z,101039.53
2023-05-10T09:18:47.412Z,101031.66
2023-05-10T09:20:19.585Z,101040.47
2023-05-10T09:21:51.895Z,101044.91
2023-05-10T09:23:25.052Z,101048.47
2023-05-10T09:25:09.485Z,101052.03
2023-05-10T09:26:49.713Z,101050.41
2023-05-10T09:28:21.760Z,101055.66
2023-05-10T09:29:55.730Z,101051.38
2023-05-10T09:31:52.741Z,101063.47
2023-05-10T09:33:24.999Z,101053.03
2023-05-10T09:34:57.153Z,101048.69
2023-05-10T09:36:29.874Z,101061.75
2023-05-10T09:38:05.471Z,101052.16
2023-05-10T09:39:39.155Z,101063.41
2023-05-10T09:41:18.265Z,101060.69
2023-05-10T09:42:57.973Z,101063.19
2023-05-10T09:44:30.060Z,101066.59
2023-05-10T09:46:10.355Z,101075.22
2023-05-10T09:47:42.332Z,101078.81
2023-05-10T09:49:16.293Z,101071.94
2023-05-10T09:50:58.696Z,101074.56
2023-05-10T09:52:50.721Z,101075.38
2023-05-10T09:54:25.013Z,101068.44
2023-05-10T09:55:57.165Z,101066.03
2023-05-10T09:57:29.286Z,101074.81
2023-05-10T09:59:04.391Z,101073.03
2023-05-10T10:00:41.868Z,101083.66
2023-05-10T10:02:14.057Z,101074.91
2023-05-10T10:03:46.717Z,101083.78
2023-05-10T10:05:18.947Z,101079.38
2023-05-10T10:07:04.954Z,101089.00
2023-05-10T10:08:38.322Z,101083.03
2023-05-10T10:10:13.534Z,101086.47
2023-05-10T10:11:45.529Z,101088.25
2023-05-10T10:13:18.498Z,101095.25
2023-05-10T10:14:51.738Z,101095.19
2023-05-10T10:16:24.081Z,101091.78
2023-05-10T10:17:56.369Z,101093.59
2023-05-10T10:19:28.504Z,101092.59
2023-05-10T10:21:01.261Z,101086.50
2023-05-10T10:22:36.128Z,101086.56
2023-05-10T10:24:08.657Z,101094.34
2023-05-10T10:25:45.183Z,101087.31
2023-05-10T10:27:25.165Z,101085.56
2023-05-10T10:29:38.639Z,101090.81
2023-05-10T10:31:27.432Z,101087.34
2023-05-10T10:33:29.229Z,101080.31
2023-05-10T10:35:10.925Z,101081.16
2023-05-10T10:36:49.419Z,101085.44
2023-05-10T10:38:21.980Z,101078.25
2023-05-10T10:39:56.665Z,101080.03
2023-05-10T10:41:32.943Z,101076.34
2023-05-10T10:43:28.656Z,101080.69
2023-05-10T10:45:13.660Z,101080.47
2023-05-10T10:47:07.231Z,101090.81
2023-05-10T10:48:39.329Z,101084.69
2023-05-10T10:50:14.118Z,101072.41
2023-05-10T10:52:24.856Z,101079.13
2023-05-10T10:54:10.445Z,101074.94
2023-05-10T10:55:49.408Z,101088.72
2023-05-10T10:57:24.683Z,101086.91
2023-05-10T10:59:00.850Z,101078.13
2023-05-10T11:00:33.562Z,101088.47
2023-05-10T11:02:05.732Z,101071.75
2023-05-10T11:03:37.940Z,101077.88
2023-05-10T11:05:37.592Z,101092.75
2023-05-10T11:07:19.259Z,101078.72
2023-05-10T11:08:53.986Z,101083.94
2023-05-10T11:10:27.092Z,101095.91
2023-05-10T11:12:01.591Z,101085.19
2023-05-10T11:13:34.661Z,101077.94
2023-05-10T11:15:10.619Z,101082.19
2023-05-10T11:16:45.876Z,101075.38
2023-05-10T11:18:32.845Z,101074.31
2023-05-10T11:20:11.691Z,101076.97
2023-05-10T11:21:50.931Z,101077.50
2023-05-10T11:23:23.358Z,101074.88
2023-05-10T11:24:59.827Z,101071.81
2023-05-10T11:26:34.113Z,101078.50
2023-05-10T11:28:06.747Z,101071.50
2023-05-10T11:29:38.851Z,101075.72
2023-05-10T11:31:11.309Z,101069.13
2023-05-10T11:32:43.573Z,101068.16
2023-05-10T11:34:30.779Z,101073.28
2023-05-10T11:36:02.750Z,101068.78
2023-05-10T11:37:35.537Z,101073.84
2023-05-10T11:39:07.670Z,101076.34
2023-05-10T11:40:40.352Z,101077.28
2023-05-10T11:42:13.485Z,101074.69
2023-05-10T11:43:47.607Z,101073.72
2023-05-10T11:45:19.707Z,101066.84
2023-05-10T11:46:51.785Z,101070.09
2023-05-10T11:48:25.292Z,101076.00
2023-05-10T11:49:58.342Z,101078.75
2023-05-10T11:51:30.559Z,101071.00
2023-05-10T11:53:02.618Z,101082.31
2023-05-10T11:54:36.191Z,101080.56
2023-05-10T11:56:11.168Z,101075.38
2023-05-10T11:57:45.347Z,101071.66
2023-05-10T11:59:17.349Z,101077.78
2023-05-10T12:00:49.589Z,101074.97
2023-05-10T12:02:21.987Z,101073.84
2023-05-10T12:03:56.094Z,101073.94
2023-05-10T12:05:28.549Z,101073.34
2023-05-10T12:07:00.717Z,101070.25
2023-05-10T12:08:32.667Z,101073.59
2023-05-10T12:10:09.083Z,101075.06
2023-05-10T12:11:44.340Z,101075.16
2023-05-10T12:13:17.087Z,101066.22
2023-05-10T12:14:52.423Z,101059.50
2023-05-10T12:16:26.596Z,101071.41
2023-05-10T12:17:58.753Z,101070.44
2023-05-10T12:19:38.514Z,101063.31
2023-05-10T12:21:14.055Z,101058.13
2023-05-10T12:22:54.220Z,101060.38
2023-05-10T12:24:26.739Z,101067.28
2023-05-10T12:26:04.680Z,101063.13
2023-05-10T12:29:45.920Z,101073.09
2023-05-10T12:31:17.948Z,101064.25
2023-05-10T12:32:50.401Z,101073.19
2023-05-10T12:34:32.258Z,101066.59
2023-05-10T12:36:04.443Z,101064.38
2023-05-10T12:37:40.146Z,101076.78
2023-05-10T12:39:13.011Z,101069.91
2023-05-10T12:40:44.890Z,101074.94
2023-05-10T12:42:17.840Z,101076.81
2023-05-10T12:43:49.959Z,101068.91
2023-05-10T12:45:22.057Z,101076.97
2023-05-10T12:46:54.054Z,101081.28
2023-05-10T12:48:26.264Z,101077.91
2023-05-10T12:49:58.541Z,101085.53
2023-05-10T12:51:30.750Z,101078.25
2023-05-10T12:53:02.872Z,101070.28
2023-05-10T12:54:34.852Z,101077.34
2023-05-10T12:56:07.333Z,101079.81
2023-05-10T12:57:39.392Z,101074.56
2023-05-10T12:59:11.448Z,101076.34
2023-05-10T13:00:45.100Z,101074.91
2023-05-10T13:02:19.405Z,101073.84
2023-05-10T13:03:51.822Z,101084.66
2023-05-10T13:05:24.040Z,101079.47
2023-05-10T13:07:00.112Z,101083.94
2023-05-10T13:08:34.827Z,101085.03
2023-05-10T13:10:07.891Z,101085.25
2023-05-10T13:11:40.091Z,101090.81
2023-05-10T13:13:12.147Z,101090.81
2023-05-10T13:14:44.315Z,101086.63
2023-05-10T13:16:16.458Z,101090.09
2023-05-10T13:17:48.559Z,101086.75
2023-05-10T13:19:20.911Z,101099.09
2023-05-10T13:20:53.105Z,101092.97
2023-05-10T13:22:36.425Z,101099.06
2023-05-10T13:24:12.390Z,101103.38
2023-05-10T13:25:44.441Z,101089.94
2023-05-10T13:27:16.680Z,101089.50
2023-05-10T13:28:50.029Z,101087.56
2023-05-10T13:30:22.148Z,101081.09
2023-05-10T13:31:54.266Z,101081.53
2023-05-10T13:33:26.368Z,101083.06
2023-05-10T13:34:58.528Z,101080.16
2023-05-10T13:36:30.579Z,101073.72
2023-05-10T13:38:09.285Z,101075.19
2023-05-10T13:39:41.409Z,101078.00
2023-05-10T13:41:13.716Z,101078.31
2023-05-10T13:42:45.881Z,101074.88
2023-05-10T13:44:18.055Z,101061.91
2023-05-10T13:45:50.030Z,101079.78
2023-05-10T13:47:22.916Z,101075.63
2023-05-10T13:48:55.103Z,101080.38
2023-05-10T13:50:27.352Z,101078.84
2023-05-10T13:51:59.661Z,101077.19
2023-05-10T13:53:32.194Z,101077.22
2023-05-10T13:55:04.603Z,101074.06
2023-05-10T13:56:36.762Z,101083.59
2023-05-10T13:58:08.719Z,101078.53
2023-05-10T13:59:41.239Z,101080.31
2023-05-10T14:01:13.579Z,101073.56
2023-05-10T14:02:45.931Z,101078.31
2023-05-10T14:04:18.203Z,101081.88
2023-05-10T14:05:50.652Z,101081.78
2023-05-10T14:07:25.713Z,101090.63
2023-05-10T14:08:57.792Z,101091.69
2023-05-10T14:10:29.944Z,101100.44
2023-05-10T14:12:02.003Z,101098.59
2023-05-10T14:13:34.313Z,101095.19
2023-05-10T14:15:07.926Z,101099.81
2023-05-10T14:16:43.815Z,101099.03
2023-05-10T14:18:15.945Z,101096.41
2023-05-10T14:19:48.072Z,101102.59
2023-05-10T14:21:20.173Z,101098.47
2023-05-10T14:22:52.290Z,101096.09
2023-05-10T14:24:24.397Z,101094.59
2023-05-10T14:25:56.573Z,101099.75
2023-05-10T14:27:28.670Z,101100.56
2023-05-10T14:29:00.661Z,101104.16
2023-05-10T14:30:33.031Z,101104.00
2023-05-10T14:32:05.307Z,101100.53
2023-05-10T14:33:37.568Z,101099.56
2023-05-10T14:35:12.826Z,101095.91
2023-05-10T14:36:45.491Z,101098.38
2023-05-10T14:38:17.540Z,101101.84
2023-05-10T14:39:49.514Z,101101.78
2023-05-10T14:41:21.469Z,101103.03
2023-05-10T14:42:54.251Z,101106.63
2023-05-10T14:44:26.376Z,101100.72
2023-05-10T14:45:58.352Z,101106.13
2023-05-10T14:47:30.430Z,101103.66
2023-05-10T14:49:02.507Z,101110.69
2023-05-10T14:50:36.410Z,101111.44
2023-05-10T14:52:08.819Z,101110.63
2023-05-10T14:53:40.882Z,101117.19
2023-05-10T14:55:12.914Z,101108.44
2023-05-10T14:56:45.805Z,101115.63
2023-05-10T14:58:17.925Z,101116.44
2023-05-10T14:59:49.909Z,101130.66
2023-05-10T15:01:22.712Z,101124.72
2023-05-10T15:02:55.432Z,101135.41
2023-05-10T15:04:29.149Z,101140.19
2023-05-10T15:06:01.507Z,101149.19
2023-05-10T15:07:33.454Z,101139.72
2023-05-10T15:09:05.348Z,101151.41
2023-05-10T15:10:38.026Z,101151.66
2023-05-10T15:12:09.901Z,101149.44
2023-05-10T15:13:41.799Z,101154.91
2023-05-10T15:15:13.636Z,101155.97
2023-05-10T15:16:45.643Z,101155.31
2023-05-10T15:18:17.580Z,101153.53
2023-05-10T15:19:50.448Z,101157.06
2023-05-10T15:21:22.697Z,101161.47
2023-05-10T15:22:54.613Z,101159.00
2023-05-10T15:24:26.757Z,101150.56
2023-05-10T15:25:58.747Z,101163.72
2023-05-10T15:27:30.842Z,101158.50
2023-05-10T15:29:02.911Z,101157.66
2023-05-10T15:30:34.976Z,101162.88
2023-05-10T15:32:06.889Z,101167.22
2023-05-10T15:33:39.687Z,101157.63
2023-05-10T15:35:11.787Z,101155.81
2023-05-10T15:36:43.798Z,101157.66
2023-05-10T15:38:16.159Z,101159.44
2023-05-10T15:39:48.327Z,101155.94
2023-05-10T15:41:20.284Z,101161.97
2023-05-10T15:43:19.989Z,101166.34
2023-05-10T15:44:55.296Z,101163.78
2023-05-10T15:46:28.639Z,101165.47
2023-05-10T15:48:00.752Z,101169.13
2023-05-10T15:49:33.695Z,101167.53
2023-05-10T15:51:05.707Z,101177.25
2023-05-10T15:52:37.679Z,101177.31
2023-05-10T15:54:10.185Z,101175.53
2023-05-10T15:55:42.094Z,101175.59
2023-05-10T15:57:13.967Z,101175.69
2023-05-10T15:58:45.903Z,101176.63
2023-05-10T16:00:18.245Z,101192.34
2023-05-10T16:01:53.174Z,101182.69
2023-05-10T16:03:25.262Z,101184.44
2023-05-10T16:04:57.205Z,101185.31
2023-05-10T16:06:29.100Z,101186.38
2023-05-10T16:08:01.946Z,101182.75
2023-05-10T16:09:33.876Z,101193.25
2023-05-10T16:11:05.935Z,101189.75
2023-05-10T16:12:38.440Z,101194.25
2023-05-10T16:14:10.421Z,101192.56
2023-05-10T16:15:42.326Z,101198.81
2023-05-10T16:17:15.590Z,101204.94
2023-05-10T16:18:47.738Z,101203.38
2023-05-10T16:20:19.777Z,101205.94
2023-05-10T16:21:51.627Z,101209.47
2023-05-10T16:23:23.510Z,101206.03
2023-05-10T16:24:55.607Z,101206.25
2023-05-10T16:26:27.777Z,101216.22
2023-05-10T16:28:00.712Z,101214.44
2023-05-10T16:29:32.618Z,101218.81
2023-05-10T16:31:04.664Z,101217.13
2023-05-10T16:32:36.949Z,101219.78
2023-05-10T16:34:08.950Z,101220.47
2023-05-10T16:35:40.955Z,101222.16
2023-05-10T16:37:16.541Z,101221.25
2023-05-10T16:38:48.403Z,101224.66
2023-05-10T16:40:20.338Z,101220.28
2023-05-10T16:41:52.189Z,101221.09
2023-05-10T16:43:25.811Z,101220.97
2023-05-10T16:44:58.122Z,101229.06
2023-05-10T16:46:30.197Z,101221.28
2023-05-10T16:48:02.578Z,101227.44
2023-05-10T16:49:36.454Z,101219.66
2023-05-10T16:51:08.382Z,101224.13
2023-05-10T16:52:40.381Z,101225.03
2023-05-10T16:54:12.263Z,101214.53
2023-05-10T16:55:44.156Z,101220.53
2023-05-10T16:57:16.000Z,101226.59
2023-05-10T16:58:50.228Z,101225.56
2023-05-10T17:00:22.176Z,101225.63
2023-05-10T17:01:55.310Z,101223.81
2023-05-10T17:03:28.017Z,101230.69
2023-05-10T17:04:59.985Z,101219.22
2023-05-10T17:06:31.875Z,101220.09
2023-05-10T17:08:03.867Z,101224.44
2023-05-10T17:09:35.830Z,101226.28
2023-05-10T17:11:07.769Z,101230.63
2023-05-10T17:12:39.766Z,101234.97
2023-05-10T17:14:11.686Z,101227.06
2023-05-10T17:15:43.648Z,101230.59
2023-05-10T17:17:15.698Z,101235.84
2023-05-10T17:18:47.722Z,101224.44
2023-05-10T17:20:19.819Z,101229.94
2023-05-10T17:21:51.756Z,101223.69
2023-05-10T17:23:23.607Z,101228.13
2023-05-10T17:24:55.558Z,101226.34
2023-05-10T17:26:27.870Z,101235.22
2023-05-10T17:27:59.817Z,101223.84
2023-05-10T17:29:32.352Z,101216.94
2023-05-10T17:31:04.378Z,101214.22
2023-05-10T17:32:36.346Z,101217.75
2023-05-10T17:34:08.243Z,101222.09
2023-05-10T17:35:40.200Z,101223.78
2023-05-10T17:37:12.398Z,101224.69
2023-05-10T17:38:44.555Z,101222.06
2023-05-10T17:40:16.689Z,101222.00
2023-05-10T17:41:48.644Z,101224.63
2023-05-10T17:43:21.080Z,101225.47
2023-05-10T17:44:53.034Z,101217.59
2023-05-10T17:46:25.141Z,101212.28
2023-05-10T17:47:57.366Z,101215.03
2023-05-10T17:49:29.318Z,101213.25
2023-05-10T17:51:01.289Z,101218.44
2023-05-10T17:52:33.687Z,101215.75
2023-05-10T17:54:05.953Z,101224.56